Time;durP1;ratioP1;P1;durP2;ratioP2;P2;SDS_P1;SDS_P2;PMS_P1;PMS_P2;Temp;Humidity;BMP_temperature;BMP_pressure;BME280_temperature;BME280_humidity;BME280_pressure;Samples;Min_cycle;Max_cycle;Signal;HPM_P1;HPM_P2
2024/01/22 00:00:27;;;;;;;18.75;3.13;;;10.90;99.90;;;;;;5088400;28;20043;-68
2024/01/22 00:02:54;;;;;;;24.10;3.42;;;10.90;99.90;;;;;;5089347;28;20585;-61
2024/01/22 00:05:22;;;;;;;17.08;3.25;;;10.90;99.90;;;;;;5102935;28;20387;-63
2024/01/22 00:07:50;;;;;;;24.10;3.35;;;11.00;99.90;;;;;;5088997;28;20510;-69
2024/01/22 00:10:18;;;;;;;16.65;2.53;;;11.00;99.90;;;;;;5088840;28;20036;-61
2024/01/22 00:12:45;;;;;;;18.10;3.67;;;11.00;99.90;;;;;;5088286;28;20386;-67
2024/01/22 00:15:13;;;;;;;26.65;4.20;;;11.10;99.90;;;;;;5088512;28;20048;-65
2024/01/22 00:17:40;;;;;;;32.58;4.28;;;11.20;99.90;;;;;;5087535;28;20639;-62
2024/01/22 00:20:09;;;;;;;18.58;3.20;;;11.20;99.90;;;;;;5087296;28;20048;-65
2024/01/22 00:22:36;;;;;;;32.60;5.18;;;11.20;99.90;;;;;;5086766;28;20055;-61
2024/01/22 00:25:04;;;;;;;26.70;5.07;;;11.30;99.90;;;;;;5088170;28;20048;-64
2024/01/22 00:27:32;;;;;;;35.00;4.63;;;11.30;99.90;;;;;;5088377;28;20063;-66
2024/01/22 00:29:59;;;;;;;25.52;3.70;;;11.40;99.90;;;;;;5101242;28;20047;-62
2024/01/22 00:32:29;;;;;;;23.45;4.20;;;11.40;99.90;;;;;;5087313;28;20050;-62
2024/01/22 00:34:57;;;;;;;20.67;4.10;;;11.50;99.90;;;;;;5087094;28;20044;-61
2024/01/22 00:37:25;;;;;;;32.35;4.38;;;11.50;99.90;;;;;;5070136;28;20056;-61
2024/01/22 00:39:55;;;;;;;31.45;4.93;;;11.50;99.90;;;;;;5106768;28;20054;-61
2024/01/22 00:42:23;;;;;;;25.48;4.70;;;11.50;99.90;;;;;;5088412;28;20047;-68
2024/01/22 00:44:51;;;;;;;27.52;3.88;;;11.50;99.90;;;;;;5082129;28;20134;-62
2024/01/22 00:47:19;;;;;;;28.75;5.50;;;11.50;99.90;;;;;;5072496;28;20053;-60
2024/01/22 00:49:46;;;;;;;28.40;4.35;;;11.50;99.90;;;;;;5082529;28;20036;-60
2024/01/22 00:52:14;;;;;;;24.20;3.80;;;11.30;99.90;;;;;;5072030;28;20511;-60
2024/01/22 00:54:41;;;;;;;37.97;4.43;;;11.10;99.90;;;;;;5102085;28;20490;-59
2024/01/22 00:57:09;;;;;;;27.10;3.92;;;10.90;99.90;;;;;;5108246;28;20129;-60
2024/01/22 00:59:37;;;;;;;51.00;6.07;;;10.80;99.90;;;;;;5088520;28;20044;-60
2024/01/22 01:02:04;;;;;;;31.13;4.13;;;10.60;99.90;;;;;;5066936;28;20182;-60
2024/01/22 01:04:33;;;;;;;18.45;3.15;;;10.50;99.90;;;;;;5088515;28;20043;-60
2024/01/22 01:07:00;;;;;;;22.02;3.72;;;10.30;99.90;;;;;;5072391;28;20045;-61
2024/01/22 01:09:28;;;;;;;22.65;3.53;;;10.10;99.90;;;;;;5072011;28;20036;-61
2024/01/22 01:11:56;;;;;;;28.65;5.15;;;10.00;99.90;;;;;;5090122;28;20043;-61
2024/01/22 01:14:24;;;;;;;17.42;2.85;;;9.80;99.90;;;;;;5090675;28;20227;-61
2024/01/22 01:16:52;;;;;;;24.30;3.08;;;9.70;99.90;;;;;;5088559;28;20036;-65
2024/01/22 01:19:20;;;;;;;28.13;3.60;;;9.60;99.90;;;;;;5103214;28;20050;-63
2024/01/22 01:21:47;;;;;;;15.52;3.10;;;9.50;99.90;;;;;;5079595;28;20480;-63
2024/01/22 01:24:15;;;;;;;25.35;3.92;;;9.30;99.90;;;;;;5087074;28;20048;-64
2024/01/22 01:26:43;;;;;;;28.10;4.07;;;9.30;99.90;;;;;;5091735;28;20044;-63
2024/01/22 01:29:11;;;;;;;22.23;3.78;;;9.20;99.90;;;;;;5100834;28;20035;-65
2024/01/22 01:31:39;;;;;;;31.20;3.80;;;9.20;99.90;;;;;;5095380;28;20419;-62
2024/01/22 01:34:07;;;;;;;33.15;4.20;;;9.10;99.90;;;;;;5095034;28;20039;-64
2024/01/22 01:36:35;;;;;;;19.08;3.05;;;9.10;99.90;;;;;;5080202;28;20361;-64
2024/01/22 01:39:03;;;;;;;25.05;3.03;;;9.00;99.90;;;;;;5083892;28;20043;-63
2024/01/22 01:41:31;;;;;;;19.40;3.05;;;9.00;99.90;;;;;;5091354;28;20055;-61
2024/01/22 01:43:58;;;;;;;28.83;4.07;;;9.00;99.90;;;;;;5097803;28;20069;-67
2024/01/22 01:46:26;;;;;;;21.73;3.22;;;9.00;99.90;;;;;;5091064;28;20043;-63
2024/01/22 01:48:55;;;;;;;28.38;4.15;;;9.00;99.90;;;;;;5089968;28;20436;-67
2024/01/22 01:51:24;;;;;;;13.23;3.83;;;9.00;99.90;;;;;;5080031;28;20044;-63
2024/01/22 01:53:54;;;;;;;31.23;4.05;;;8.90;99.90;;;;;;5082548;28;20056;-70
2024/01/22 01:56:22;;;;;;;39.33;5.38;;;8.90;99.90;;;;;;5091471;28;20483;-63
2024/01/22 01:58:50;;;;;;;30.90;5.38;;;8.90;99.90;;;;;;5095739;28;20040;-63
2024/01/22 02:01:19;;;;;;;21.45;3.60;;;8.90;99.90;;;;;;5098671;28;20048;-69
2024/01/22 02:03:47;;;;;;;22.17;4.35;;;8.90;99.90;;;;;;5088800;28;20547;-70
2024/01/22 02:06:15;;;;;;;31.27;4.50;;;9.00;99.90;;;;;;5086967;28;20068;-62
2024/01/22 02:08:52;;;;;;;21.42;2.83;;;9.00;99.90;;;;;;5075917;28;20048;-62
2024/01/22 02:11:21;;;;;;;31.02;4.15;;;9.00;99.90;;;;;;5087555;28;20058;-70
2024/01/22 02:13:49;;;;;;;20.00;3.30;;;9.10;99.90;;;;;;5096589;28;20059;-69
2024/01/22 02:16:16;;;;;;;18.33;4.55;;;9.10;99.90;;;;;;5090912;28;20483;-69
2024/01/22 02:18:45;;;;;;;23.65;3.63;;;9.00;99.90;;;;;;5090735;28;20040;-69
2024/01/22 02:21:14;;;;;;;19.83;2.58;;;9.00;99.90;;;;;;5088257;28;20063;-70
2024/01/22 02:23:41;;;;;;;19.80;3.33;;;8.90;99.90;;;;;;5090440;28;20291;-69
2024/01/22 02:26:09;;;;;;;24.73;4.18;;;8.90;99.90;;;;;;5090623;28;20044;-69
2024/01/22 02:28:36;;;;;;;19.80;3.15;;;8.90;99.90;;;;;;5094806;28;20051;-69
2024/01/22 02:31:07;;;;;;;20.60;4.28;;;8.90;99.90;;;;;;5092134;28;20399;-69
2024/01/22 02:33:34;;;;;;;;;;;8.90;99.90;;;;;;5072876;28;20048;-69
2024/01/22 02:36:02;;;;;;;24.80;3.40;;;8.90;99.90;;;;;;5071028;28;19928;-64
2024/01/22 02:38:30;;;;;;;19.17;2.90;;;8.90;99.90;;;;;;5089204;28;20491;-67
2024/01/22 02:40:58;;;;;;;15.10;2.13;;;8.90;99.90;;;;;;5093710;28;20032;-69
2024/01/22 02:43:25;;;;;;;12.00;2.00;;;8.90;99.90;;;;;;5080249;28;20543;-69
2024/01/22 02:45:53;;;;;;;11.57;1.88;;;8.80;99.90;;;;;;5078399;28;20040;-71
2024/01/22 02:48:21;;;;;;;18.60;2.38;;;8.80;99.90;;;;;;5093746;28;20062;-64
2024/01/22 02:50:48;;;;;;;13.68;1.80;;;8.80;99.90;;;;;;5092473;28;20126;-64
2024/01/22 02:53:16;;;;;;;22.75;2.85;;;8.80;99.90;;;;;;5093321;28;20044;-71
2024/01/22 02:55:44;;;;;;;11.98;1.13;;;8.80;99.90;;;;;;5093543;28;20044;-63
2024/01/22 02:58:11;;;;;;;13.23;1.63;;;8.80;99.90;;;;;;5092442;28;20052;-63
2024/01/22 03:00:39;;;;;;;15.95;2.22;;;8.80;99.90;;;;;;5105028;28;20036;-63
2024/01/22 03:03:07;;;;;;;9.63;1.35;;;8.80;99.90;;;;;;5093471;28;20047;-66
2024/01/22 03:05:35;;;;;;;11.20;1.92;;;8.70;99.90;;;;;;5092548;28;20051;-62
2024/01/22 03:08:03;;;;;;;13.52;2.28;;;8.80;99.90;;;;;;5088300;28;20059;-63
2024/01/22 03:10:31;;;;;;;13.32;2.17;;;8.70;99.90;;;;;;5092341;28;20498;-63
2024/01/22 03:12:58;;;;;;;8.88;1.48;;;8.70;99.90;;;;;;5089333;28;20055;-63
2024/01/22 03:15:26;;;;;;;8.90;1.33;;;8.70;99.90;;;;;;5091767;28;20043;-63
2024/01/22 03:17:54;;;;;;;14.00;1.67;;;8.60;99.90;;;;;;5092174;28;20048;-62
2024/01/22 03:20:22;;;;;;;9.50;2.10;;;8.60;99.90;;;;;;5093072;28;20047;-64
2024/01/22 03:22:49;;;;;;;17.80;2.63;;;8.50;99.90;;;;;;5093131;28;20048;-63
2024/01/22 03:25:17;;;;;;;9.68;1.38;;;8.40;99.90;;;;;;5074381;28;20064;-65
2024/01/22 03:27:44;;;;;;;6.85;1.52;;;8.40;99.90;;;;;;5081321;28;20044;-63
2024/01/22 03:30:12;;;;;;;9.15;1.65;;;8.30;99.90;;;;;;5105764;28;20039;-64
2024/01/22 03:32:40;;;;;;;12.43;1.80;;;8.30;99.90;;;;;;5092360;28;20051;-64
2024/01/22 03:35:07;;;;;;;10.50;1.73;;;8.30;99.90;;;;;;5092689;28;20044;-63
2024/01/22 03:37:35;;;;;;;14.07;2.15;;;8.30;99.90;;;;;;5092792;28;20048;-62
2024/01/22 03:40:03;;;;;;;15.02;2.33;;;8.30;99.90;;;;;;5092390;28;20055;-63
2024/01/22 03:42:31;;;;;;;9.77;0.93;;;8.30;99.90;;;;;;5091365;28;20052;-63
2024/01/22 03:44:58;;;;;;;11.30;1.83;;;8.30;99.90;;;;;;5092726;28;20042;-65
2024/01/22 03:47:27;;;;;;;7.50;1.27;;;8.30;99.90;;;;;;5091736;28;20403;-66
2024/01/22 03:49:55;;;;;;;12.45;2.15;;;8.30;99.90;;;;;;5092563;28;20048;-68
2024/01/22 03:52:23;;;;;;;9.23;2.13;;;8.30;99.90;;;;;;5092498;28;20036;-68
2024/01/22 03:54:50;;;;;;;21.30;2.63;;;8.30;99.90;;;;;;5092504;28;20059;-69
2024/01/22 03:57:18;;;;;;;16.63;1.35;;;8.30;99.90;;;;;;5092432;28;20056;-62
2024/01/22 03:59:46;;;;;;;12.48;2.15;;;8.30;99.90;;;;;;5106035;28;20596;-62
2024/01/22 04:02:14;;;;;;;9.27;1.13;;;8.30;99.90;;;;;;5093262;28;20067;-63
2024/01/22 04:04:42;;;;;;;9.30;1.55;;;8.30;99.90;;;;;;5090772;28;20048;-62
2024/01/22 04:07:10;;;;;;;13.57;2.42;;;8.20;99.90;;;;;;5092209;28;20051;-64
2024/01/22 04:09:38;;;;;;;12.60;2.25;;;8.10;99.90;;;;;;5092145;28;20073;-64
2024/01/22 04:12:06;;;;;;;14.60;1.95;;;8.10;99.90;;;;;;5091158;28;20043;-66
2024/01/22 04:14:33;;;;;;;9.30;2.15;;;8.10;99.90;;;;;;5090749;28;20513;-62
2024/01/22 04:17:02;;;;;;;9.52;1.88;;;8.10;99.90;;;;;;5092041;28;20044;-63
2024/01/22 04:19:29;;;;;;;16.02;2.47;;;8.10;99.90;;;;;;5092085;28;20052;-63
2024/01/22 04:21:57;;;;;;;14.75;1.70;;;8.10;99.90;;;;;;5091757;28;20499;-63
2024/01/22 04:24:25;;;;;;;13.48;1.80;;;8.10;99.90;;;;;;5090724;28;20051;-63
2024/01/22 04:26:52;;;;;;;12.35;1.83;;;8.10;99.90;;;;;;5090823;28;20048;-62
2024/01/22 04:29:20;;;;;;;27.33;4.32;;;8.10;99.90;;;;;;5102330;28;20043;-62
2024/01/22 04:31:48;;;;;;;10.25;1.67;;;8.10;99.90;;;;;;5098496;28;20495;-60
2024/01/22 04:34:15;;;;;;;17.52;1.98;;;8.10;99.90;;;;;;5091727;28;20047;-63
2024/01/22 04:36:43;;;;;;;16.27;1.77;;;8.10;99.90;;;;;;5091366;28;20391;-61
2024/01/22 04:39:11;;;;;;;22.80;2.22;;;8.10;99.90;;;;;;5088320;28;20048;-61
2024/01/22 04:41:38;;;;;;;10.27;1.90;;;8.00;99.90;;;;;;5091659;28;20506;-62
2024/01/22 04:44:06;;;;;;;17.70;2.13;;;8.00;99.90;;;;;;5090703;28;20502;-63
2024/01/22 04:46:34;;;;;;;23.25;1.92;;;8.00;99.90;;;;;;5091687;28;20051;-62
2024/01/22 04:49:02;;;;;;;11.75;2.00;;;7.90;99.90;;;;;;5091075;28;20055;-72
2024/01/22 04:51:29;;;;;;;18.95;2.00;;;7.80;99.90;;;;;;5091419;28;20048;-65
2024/01/22 04:53:57;;;;;;;11.43;1.90;;;7.80;99.90;;;;;;5091470;28;20055;-66
2024/01/22 04:56:25;;;;;;;12.52;1.90;;;7.80;99.90;;;;;;5090857;28;20391;-63
2024/01/22 04:58:52;;;;;;;15.85;3.17;;;7.70;99.90;;;;;;5092982;28;20036;-62
2024/01/22 05:01:20;;;;;;;13.60;1.85;;;7.80;99.90;;;;;;5091408;28;20399;-63
2024/01/22 05:03:47;;;;;;;18.33;2.00;;;7.70;99.90;;;;;;5090422;28;20040;-67
2024/01/22 05:06:15;;;;;;;22.25;2.05;;;7.70;99.90;;;;;;5088021;28;20399;-63
2024/01/22 05:08:43;;;;;;;13.10;1.45;;;7.60;99.90;;;;;;5091208;28;20048;-68
2024/01/22 05:11:11;;;;;;;21.00;1.88;;;7.60;99.90;;;;;;5090794;28;20063;-69
2024/01/22 05:13:51;;;;;;;12.20;2.15;;;7.60;99.90;;;;;;5091109;28;20529;-64
2024/01/22 05:16:21;;;;;;;9.57;1.92;;;7.60;99.90;;;;;;5091439;28;20051;-68
2024/01/22 05:18:50;;;;;;;23.02;2.17;;;7.60;99.90;;;;;;5091120;28;20048;-71
2024/01/22 05:21:21;;;;;;;14.77;1.97;;;7.60;99.90;;;;;;5080985;28;20051;-63
2024/01/22 05:23:49;;;;;;;12.93;2.40;;;7.70;99.90;;;;;;5091236;28;20055;-63
2024/01/22 05:26:18;;;;;;;14.18;2.58;;;7.60;99.90;;;;;;5091210;28;20400;-64
2024/01/22 05:28:45;;;;;;;15.02;2.10;;;7.60;99.90;;;;;;5096849;28;20513;-63
2024/01/22 05:31:13;;;;;;;9.18;1.77;;;7.60;99.90;;;;;;5111530;28;20039;-64
2024/01/22 05:33:42;;;;;;;15.05;1.55;;;7.60;99.90;;;;;;5090485;28;20051;-67
2024/01/22 05:36:10;;;;;;;19.02;2.10;;;7.60;99.90;;;;;;5090949;28;20040;-65
2024/01/22 05:38:43;;;;;;;10.32;1.70;;;7.60;99.90;;;;;;5091336;28;20067;-66
2024/01/22 05:41:11;;;;;;;13.18;1.60;;;7.60;99.90;;;;;;5091302;28;20047;-65
2024/01/22 05:43:39;;;;;;;15.65;1.77;;;7.60;99.90;;;;;;5090168;28;20047;-66
2024/01/22 05:46:07;;;;;;;19.75;2.20;;;7.70;99.90;;;;;;5091048;28;20056;-66
2024/01/22 05:48:35;;;;;;;18.35;1.80;;;7.60;99.90;;;;;;5079843;28;20040;-65
2024/01/22 05:51:03;;;;;;;13.73;2.10;;;7.60;99.90;;;;;;5085713;28;20396;-65
2024/01/22 05:53:31;;;;;;;13.52;2.28;;;7.60;99.90;;;;;;5087330;28;20040;-66
2024/01/22 05:56:00;;;;;;;14.93;2.35;;;7.60;99.90;;;;;;5088399;28;20063;-69
2024/01/22 05:58:28;;;;;;;14.63;2.13;;;7.60;99.90;;;;;;5094026;28;20052;-71
2024/01/22 06:00:56;;;;;;;20.98;3.35;;;7.50;99.90;;;;;;5094340;28;20063;-70
2024/01/22 06:03:23;;;;;;;14.55;1.98;;;7.50;99.90;;;;;;5067404;28;20052;-69
2024/01/22 06:05:52;;;;;;;17.17;1.77;;;7.50;99.90;;;;;;5077750;28;20056;-72
2024/01/22 06:08:19;;;;;;;13.77;2.05;;;7.40;99.90;;;;;;5099886;28;20051;-71
2024/01/22 06:10:48;;;;;;;10.48;1.45;;;7.40;99.90;;;;;;5111417;28;20046;-71
2024/01/22 06:13:15;;;;;;;11.60;1.35;;;7.40;99.90;;;;;;5097453;28;20055;-71
2024/01/22 06:15:43;;;;;;;11.77;1.70;;;7.40;99.90;;;;;;5089111;28;20040;-71
2024/01/22 06:18:11;;;;;;;11.75;1.50;;;7.50;99.90;;;;;;5079375;28;20044;-67
2024/01/22 06:20:38;;;;;;;9.73;1.60;;;7.50;99.90;;;;;;5067410;28;20408;-65
2024/01/22 06:23:06;;;;;;;10.23;2.45;;;7.60;99.90;;;;;;5085771;28;20047;-65
2024/01/22 06:25:34;;;;;;;16.55;2.80;;;7.60;99.90;;;;;;5069496;28;20059;-63
2024/01/22 06:28:02;;;;;;;10.25;1.17;;;7.60;99.90;;;;;;5090385;28;20503;-66
2024/01/22 06:30:30;;;;;;;11.43;1.90;;;7.60;99.90;;;;;;5070355;28;20047;-65
2024/01/22 06:32:58;;;;;;;11.20;1.80;;;7.60;99.90;;;;;;5077177;28;20048;-64
2024/01/22 06:35:26;;;;;;;13.93;1.67;;;7.70;99.90;;;;;;5088901;28;20048;-64
2024/01/22 06:37:54;;;;;;;17.67;2.35;;;7.60;99.90;;;;;;5086941;28;20063;-63
2024/01/22 06:40:21;;;;;;;14.43;1.98;;;7.60;99.90;;;;;;5087104;28;20051;-63
2024/01/22 06:42:49;;;;;;;14.05;2.22;;;7.60;99.90;;;;;;5068284;28;20051;-71
2024/01/22 06:45:17;;;;;;;10.25;1.55;;;7.60;99.90;;;;;;5087510;28;20048;-69
2024/01/22 06:47:44;;;;;;;10.88;1.45;;;7.50;99.90;;;;;;5086225;28;20051;-72
2024/01/22 06:50:13;;;;;;;12.80;2.13;;;7.50;99.90;;;;;;5072512;28;20044;-65
2024/01/22 06:52:41;;;;;;;12.50;2.00;;;7.60;99.90;;;;;;5078715;28;20617;-69
2024/01/22 06:55:09;;;;;;;18.92;1.70;;;7.60;99.90;;;;;;5089811;28;20438;-70
2024/01/22 06:57:36;;;;;;;12.82;1.40;;;7.70;99.90;;;;;;5085071;28;20045;-71
2024/01/22 07:00:07;;;;;;;12.88;2.63;;;7.70;99.90;;;;;;5082013;28;20051;-64
2024/01/22 07:02:37;;;;;;;9.18;1.20;;;7.70;99.90;;;;;;5076661;28;20052;-69
2024/01/22 07:05:06;;;;;;;14.32;1.85;;;7.70;99.90;;;;;;5085965;28;20056;-72
2024/01/22 07:07:34;;;;;;;12.60;1.73;;;7.70;99.90;;;;;;5092095;28;20055;-72
2024/01/22 07:10:01;;;;;;;7.10;1.30;;;7.70;99.90;;;;;;5110016;28;20054;-71
2024/01/22 07:12:29;;;;;;;22.42;1.85;;;7.60;99.90;;;;;;5102816;28;20044;-66
2024/01/22 07:14:58;;;;;;;12.68;1.98;;;7.50;99.90;;;;;;5087252;28;20052;-67
2024/01/22 07:17:25;;;;;;;12.02;1.52;;;7.50;99.90;;;;;;5070085;28;20040;-64
2024/01/22 07:19:53;;;;;;;10.38;1.70;;;7.50;99.90;;;;;;5085285;28;20471;-71
2024/01/22 07:22:21;;;;;;;16.98;2.85;;;7.40;99.90;;;;;;5088711;28;20040;-71
2024/01/22 07:24:48;;;;;;;11.80;1.83;;;7.40;99.90;;;;;;5088531;28;20052;-64
2024/01/22 07:27:16;;;;;;;12.40;1.55;;;7.40;99.90;;;;;;5086805;28;20479;-64
2024/01/22 07:29:44;;;;;;;3.75;0.95;;;7.40;99.90;;;;;;5098804;28;20229;-64
2024/01/22 07:32:12;;;;;;;11.35;4.07;;;7.40;99.90;;;;;;5105257;28;20055;-70
2024/01/22 07:34:40;;;;;;;11.68;1.83;;;7.40;99.90;;;;;;5091930;28;20051;-67
2024/01/22 07:37:07;;;;;;;17.35;2.08;;;7.40;99.90;;;;;;5085186;28;20051;-68
2024/01/22 07:39:35;;;;;;;12.43;1.65;;;7.40;99.90;;;;;;5086062;28;20052;-64
2024/01/22 07:42:03;;;;;;;10.50;1.70;;;7.50;99.90;;;;;;5073923;28;20292;-65
2024/01/22 07:44:31;;;;;;;19.38;1.95;;;7.50;99.90;;;;;;5088866;28;20047;-64
2024/01/22 07:46:58;;;;;;;15.73;2.20;;;7.50;99.90;;;;;;5088454;28;20032;-66
2024/01/22 07:49:26;;;;;;;13.82;2.25;;;7.50;99.90;;;;;;5086211;28;20054;-69
2024/01/22 07:51:54;;;;;;;6.68;1.73;;;7.40;99.90;;;;;;5087989;28;20059;-65
2024/01/22 07:54:22;;;;;;;17.88;1.98;;;7.30;99.90;;;;;;5086565;28;20047;-67
2024/01/22 07:56:49;;;;;;;15.60;1.85;;;7.30;99.90;;;;;;5088982;28;20063;-64
2024/01/22 07:59:17;;;;;;;11.63;2.10;;;7.20;99.90;;;;;;5088501;28;20056;-62
2024/01/22 08:01:45;;;;;;;12.05;1.77;;;7.20;99.90;;;;;;5087372;28;20063;-65
2024/01/22 08:04:12;;;;;;;19.10;2.08;;;7.10;99.90;;;;;;5073653;28;20059;-64
2024/01/22 08:06:40;;;;;;;11.68;1.77;;;7.00;99.90;;;;;;5084228;28;20055;-63
2024/01/22 08:09:08;;;;;;;13.10;1.92;;;6.90;99.90;;;;;;5088377;28;20650;-63
2024/01/22 08:11:36;;;;;;;12.10;1.80;;;7.00;99.90;;;;;;5086623;28;20040;-63
2024/01/22 08:14:03;;;;;;;15.63;2.38;;;6.90;99.90;;;;;;5087882;28;20055;-64
2024/01/22 08:16:31;;;;;;;9.43;1.10;;;7.00;99.90;;;;;;5087663;28;20524;-64
2024/01/22 08:18:59;;;;;;;12.20;2.65;;;7.10;99.90;;;;;;5089246;28;20048;-65
2024/01/22 08:21:27;;;;;;;13.95;2.85;;;7.10;99.90;;;;;;5070252;28;20043;-64
2024/01/22 08:23:54;;;;;;;11.88;1.77;;;7.10;99.90;;;;;;5087797;28;20048;-63
2024/01/22 08:26:22;;;;;;;14.43;2.50;;;7.10;99.90;;;;;;5088595;28;20043;-64
2024/01/22 08:28:50;;;;;;;13.20;2.70;;;7.10;99.90;;;;;;5108571;28;20058;-67
2024/01/22 08:31:18;;;;;;;17.33;1.98;;;7.00;99.90;;;;;;5107650;28;20101;-63
2024/01/22 08:33:45;;;;;;;19.42;2.53;;;7.00;99.90;;;;;;5082396;28;20491;-63
2024/01/22 08:36:14;;;;;;;14.30;3.13;;;6.90;99.90;;;;;;5072237;28;20043;-64
2024/01/22 08:38:42;;;;;;;16.30;2.25;;;6.90;99.90;;;;;;5078145;28;20399;-70
2024/01/22 08:41:10;;;;;;;13.85;2.20;;;6.90;99.90;;;;;;5073486;28;20055;-68
2024/01/22 08:43:37;;;;;;;15.55;2.30;;;6.90;99.90;;;;;;5075565;28;20052;-65
2024/01/22 08:46:05;;;;;;;13.35;2.08;;;7.00;99.90;;;;;;5074004;28;20063;-63
2024/01/22 08:48:33;;;;;;;5.40;1.20;;;7.00;99.90;;;;;;5072198;28;20040;-63
2024/01/22 08:51:00;;;;;;;15.85;1.85;;;7.00;99.90;;;;;;5077368;28;20055;-67
2024/01/22 08:53:28;;;;;;;12.95;2.58;;;7.00;99.90;;;;;;5084720;28;20059;-71
2024/01/22 08:55:57;;;;;;;12.07;2.17;;;7.00;99.90;;;;;;5076109;28;20037;-68
2024/01/22 08:58:25;;;;;;;10.23;1.63;;;6.90;99.90;;;;;;5084781;28;20036;-70
2024/01/22 09:00:53;;;;;;;17.15;2.40;;;6.90;99.90;;;;;;5083897;28;20479;-67
2024/01/22 09:03:26;;;;;;;15.57;2.33;;;6.90;99.90;;;;;;5080085;28;20044;-68
2024/01/22 09:05:54;;;;;;;18.08;2.67;;;6.90;99.90;;;;;;5074000;28;20044;-71
2024/01/22 09:08:22;;;;;;;7.90;1.38;;;7.00;99.90;;;;;;5087538;28;20757;-67
2024/01/22 09:10:49;;;;;;;10.27;2.17;;;6.90;99.90;;;;;;5067030;28;20047;-66
2024/01/22 09:13:17;;;;;;;14.63;1.58;;;7.00;99.90;;;;;;5072596;28;20040;-65
2024/01/22 09:15:45;;;;;;;16.63;1.92;;;7.00;99.90;;;;;;5081035;28;20040;-68
2024/01/22 09:18:14;;;;;;;16.73;3.13;;;7.00;99.90;;;;;;5087106;28;20506;-72
2024/01/22 09:20:42;;;;;;;8.30;1.42;;;7.10;99.90;;;;;;5085318;28;20040;-70
2024/01/22 09:23:09;;;;;;;13.35;1.95;;;7.10;99.90;;;;;;5088144;28;20058;-71
2024/01/22 09:25:40;;;;;;;3.72;0.93;;;7.10;99.90;;;;;;5060716;28;20048;-72
2024/01/22 09:28:10;;;;;;;12.48;1.60;;;7.20;99.90;;;;;;5085558;28;20048;-71
2024/01/22 09:30:38;;;;;;;17.47;2.10;;;7.20;99.90;;;;;;5084847;28;20042;-68
2024/01/22 09:33:06;;;;;;;12.77;2.88;;;7.30;99.90;;;;;;5083963;28;20759;-72
2024/01/22 09:35:34;;;;;;;8.13;1.15;;;7.40;99.90;;;;;;5074478;28;20049;-68
2024/01/22 09:38:01;;;;;;;12.90;1.77;;;7.50;99.90;;;;;;5080310;28;20044;-64
2024/01/22 09:40:33;;;;;;;11.93;1.27;;;7.60;99.90;;;;;;5074380;28;20056;-68
2024/01/22 09:43:07;;;;;;;7.45;1.38;;;7.60;99.90;;;;;;5090000;28;20044;-65
2024/01/22 09:45:35;;;;;;;14.02;1.65;;;7.80;99.90;;;;;;5086866;28;20535;-68
2024/01/22 09:48:03;;;;;;;18.85;2.17;;;7.80;99.90;;;;;;5085910;28;20507;-70
2024/01/22 09:50:32;;;;;;;15.65;2.30;;;7.80;99.90;;;;;;5079155;28;20051;-65
2024/01/22 09:53:10;;;;;;;14.52;1.90;;;7.80;99.90;;;;;;5089904;28;20059;-71
2024/01/22 09:55:41;;;;;;;16.10;2.95;;;7.90;99.90;;;;;;5079815;28;20055;-70
2024/01/22 09:58:13;;;;;;;12.75;1.67;;;7.90;99.90;;;;;;5086749;28;20040;-71
2024/01/22 10:00:42;;;;;;;18.48;2.63;;;8.00;99.90;;;;;;5080472;28;20052;-69
2024/01/22 10:03:11;;;;;;;12.40;1.92;;;8.00;99.90;;;;;;5077580;28;20052;-64
2024/01/22 10:05:38;;;;;;;13.55;2.22;;;8.00;99.90;;;;;;5088906;28;20043;-64
2024/01/22 10:08:06;;;;;;;15.13;1.63;;;8.00;99.90;;;;;;5090802;28;20044;-61
2024/01/22 10:10:34;;;;;;;19.65;1.92;;;8.10;99.90;;;;;;5076434;28;20052;-61
2024/01/22 10:13:04;;;;;;;11.45;1.30;;;8.10;99.90;;;;;;5068946;28;20048;-62
2024/01/22 10:15:33;;;;;;;26.63;1.88;;;8.10;99.90;;;;;;5086343;28;20110;-61
2024/01/22 10:18:15;;;;;;;18.05;1.98;;;8.10;99.90;;;;;;5087843;28;20047;-61
2024/01/22 10:20:45;;;;;;;9.95;1.70;;;8.10;99.90;;;;;;5074929;28;20048;-70
2024/01/22 10:23:15;;;;;;;11.90;1.50;;;8.10;99.90;;;;;;5083032;28;20044;-61
2024/01/22 10:25:44;;;;;;;12.25;2.45;;;8.10;99.90;;;;;;5088056;28;20040;-61
2024/01/22 10:28:16;;;;;;;20.83;1.80;;;8.20;99.90;;;;;;5089584;28;20487;-64
2024/01/22 10:30:45;;;;;;;17.77;2.22;;;8.30;99.90;;;;;;5084208;28;20051;-63
2024/01/22 10:33:15;;;;;;;23.85;2.65;;;8.30;99.90;;;;;;5085923;28;20048;-62
2024/01/22 10:35:45;;;;;;;17.13;2.03;;;8.40;99.90;;;;;;5070828;28;20055;-66
2024/01/22 10:38:21;;;;;;;16.48;2.00;;;8.50;99.90;;;;;;5085857;28;20040;-68
2024/01/22 10:40:49;;;;;;;9.43;1.92;;;8.50;99.90;;;;;;5087619;28;20530;-64
2024/01/22 10:43:32;;;;;;;9.43;1.05;;;8.60;99.90;;;;;;5080992;28;20051;-60
2024/01/22 10:46:00;;;;;;;10.68;2.05;;;8.60;99.90;;;;;;5070876;28;20048;-64
2024/01/22 10:48:31;;;;;;;9.60;1.55;;;8.70;99.90;;;;;;5081516;28;20047;-64
2024/01/22 10:51:11;;;;;;;12.48;1.75;;;8.80;99.90;;;;;;5074393;28;20056;-71
2024/01/22 10:53:41;;;;;;;10.57;1.25;;;8.90;99.90;;;;;;5082962;28;20094;-65
2024/01/22 10:56:23;;;;;;;10.13;1.35;;;8.90;99.90;;;;;;5085768;28;20052;-66
2024/01/22 10:58:54;;;;;;;10.57;1.35;;;9.00;99.90;;;;;;5078761;28;20687;-64
2024/01/22 11:01:25;;;;;;;11.73;1.35;;;8.90;99.90;;;;;;5075321;28;20400;-66
2024/01/22 11:03:57;;;;;;;15.43;2.15;;;8.90;99.90;;;;;;5071203;28;20053;-64
2024/01/22 11:06:30;;;;;;;9.75;1.58;;;8.80;99.90;;;;;;5068881;28;20051;-67
2024/01/22 11:09:04;;;;;;;6.90;1.33;;;8.60;99.90;;;;;;5088129;28;20036;-63
2024/01/22 11:11:37;;;;;;;9.25;1.40;;;8.40;99.90;;;;;;5088176;28;20047;-62
2024/01/22 11:14:05;;;;;;;17.85;1.92;;;8.20;99.90;;;;;;5070963;28;20037;-63
2024/01/22 11:16:33;;;;;;;11.63;2.35;;;8.00;99.90;;;;;;5077952;28;20064;-64
2024/01/22 11:19:04;;;;;;;18.67;2.08;;;7.80;99.90;;;;;;5078516;28;20403;-62
2024/01/22 11:21:33;;;;;;;10.98;1.38;;;7.70;99.90;;;;;;5072254;28;20055;-62
2024/01/22 11:24:12;;;;;;;9.20;2.13;;;7.50;99.90;;;;;;5071966;28;20040;-63
2024/01/22 11:26:43;;;;;;;16.33;3.15;;;7.60;99.90;;;;;;5065296;28;20071;-63
2024/01/22 11:29:16;;;;;;;12.63;2.00;;;7.60;99.90;;;;;;5070426;28;20047;-64
2024/01/22 11:31:44;;;;;;;13.75;1.95;;;7.70;99.90;;;;;;5082941;28;20052;-64
2024/01/22 11:34:38;;;;;;;14.10;1.95;;;7.80;99.90;;;;;;5067394;28;20055;-64
2024/01/22 11:37:08;;;;;;;13.65;2.13;;;8.00;99.90;;;;;;5070593;28;20238;-70
2024/01/22 11:39:39;;;;;;;13.82;1.75;;;8.20;99.90;;;;;;5088495;28;20044;-65
2024/01/22 11:42:20;;;;;;;13.00;1.75;;;8.30;99.90;;;;;;5073854;28;20052;-72
2024/01/22 11:44:50;;;;;;;15.38;1.90;;;8.50;99.90;;;;;;5068406;28;20041;-66
2024/01/22 11:47:23;;;;;;;8.40;1.73;;;8.60;99.90;;;;;;5075216;28;20052;-64
2024/01/22 11:50:01;;;;;;;15.02;1.80;;;8.80;99.90;;;;;;5081032;28;20044;-68
2024/01/22 11:52:30;;;;;;;13.88;2.22;;;9.20;99.90;;;;;;5081570;28;20067;-71
2024/01/22 11:55:07;;;;;;;11.98;1.73;;;9.40;99.90;;;;;;5085012;28;20052;-69
2024/01/22 11:57:36;;;;;;;9.38;1.67;;;9.70;99.90;;;;;;5088634;28;20446;-66
2024/01/22 12:00:19;;;;;;;15.32;2.13;;;9.80;99.90;;;;;;5075702;28;20040;-65
2024/01/22 12:02:48;;;;;;;18.75;2.15;;;9.70;99.90;;;;;;5083208;28;20048;-63
2024/01/22 12:05:19;;;;;;;15.27;3.53;;;9.70;99.90;;;;;;5079017;28;20052;-68
2024/01/22 12:07:54;;;;;;;18.30;2.55;;;9.60;99.90;;;;;;5077245;28;20043;-68
2024/01/22 12:10:28;;;;;;;12.80;2.05;;;9.60;99.90;;;;;;5071222;28;20044;-66
2024/01/22 12:12:58;;;;;;;8.98;1.88;;;9.50;99.90;;;;;;5086179;28;20052;-67
2024/01/22 12:15:28;;;;;;;12.27;1.85;;;9.70;99.90;;;;;;5087020;28;20487;-70
2024/01/22 12:17:56;;;;;;;;;;;9.90;99.90;;;;;;5078876;28;20056;-65
2024/01/22 12:20:25;;;;;;;11.75;2.08;;;10.30;99.90;;;;;;5067726;28;19920;-71
2024/01/22 12:23:00;;;;;;;6.72;1.38;;;10.50;99.90;;;;;;5069419;28;20044;-68
2024/01/22 12:25:40;;;;;;;16.20;2.05;;;10.80;99.90;;;;;;5067334;28;20051;-70
2024/01/22 12:28:13;;;;;;;9.27;1.67;;;11.00;99.90;;;;;;5078816;28;20052;-63
2024/01/22 12:30:44;;;;;;;5.80;2.05;;;11.20;99.90;;;;;;5069185;28;20049;-64
2024/01/22 12:33:24;;;;;;;7.68;1.58;;;11.40;99.90;;;;;;5073272;28;20048;-63
2024/01/22 12:36:08;;;;;;;9.50;1.48;;;11.50;99.90;;;;;;5078046;28;20387;-62
2024/01/22 12:38:50;;;;;;;13.38;2.90;;;11.50;99.90;;;;;;5076373;28;20048;-64
2024/01/22 12:41:20;;;;;;;6.55;0.95;;;11.60;99.90;;;;;;5077260;28;20427;-65
2024/01/22 12:43:54;;;;;;;9.93;1.63;;;11.60;99.90;;;;;;5077758;28;20052;-62
2024/01/22 12:46:22;;;;;;;15.13;1.92;;;11.60;99.90;;;;;;5072609;28;20480;-62
2024/01/22 12:48:55;;;;;;;9.68;1.25;;;11.70;99.90;;;;;;5078836;28;20467;-62
2024/01/22 12:51:27;;;;;;;8.90;1.65;;;11.80;99.90;;;;;;5070619;28;20048;-62
2024/01/22 12:53:56;;;;;;;8.80;1.33;;;11.70;99.90;;;;;;5076093;28;20045;-62
2024/01/22 12:56:24;;;;;;;8.13;1.45;;;11.60;99.90;;;;;;5085352;28;20040;-61